createdAt,value
2018-06-10T00:00:30.952Z,98810.83
2018-06-10T00:01:02.194Z,98814.08
2018-06-10T00:01:33.380Z,98812.39
2018-06-10T00:02:04.560Z,98820.70
2018-06-10T00:02:35.791Z,98812.88
2018-06-10T00:03:06.972Z,98812.42
2018-06-10T00:03:38.209Z,98815.17
2018-06-10T00:04:09.404Z,98813.15
2018-06-10T00:04:40.645Z,98818.45
2018-06-10T00:05:11.844Z,98818.55
2018-06-10T00:05:43.025Z,98816.89
2018-06-10T00:06:14.208Z,98817.36
2018-06-10T00:06:45.391Z,98819.77
2018-06-10T00:07:16.576Z,98817.59
2018-06-10T00:07:47.790Z,98817.48
2018-06-10T00:08:18.964Z,98820.97
2018-06-10T00:08:50.194Z,98821.83
2018-06-10T00:09:21.387Z,98818.31
2018-06-10T00:09:52.613Z,98817.36
2018-06-10T00:10:23.803Z,98820.61
2018-06-10T00:10:55.045Z,98825.67
2018-06-10T00:11:26.237Z,98823.16
2018-06-10T00:11:57.418Z,98822.69
2018-06-10T00:12:28.693Z,98825.80
2018-06-10T00:12:59.913Z,98830.41
2018-06-10T00:13:31.142Z,98828.36
2018-06-10T00:14:02.337Z,98830.28
2018-06-10T00:14:33.568Z,98829.42
2018-06-10T00:15:04.762Z,98830.98
2018-06-10T00:15:37.148Z,98827.63
2018-06-10T00:16:08.385Z,98830.27
2018-06-10T00:16:39.631Z,98831.59
2018-06-10T00:17:10.822Z,98837.04
2018-06-10T00:17:41.996Z,98833.16
2018-06-10T00:18:13.265Z,98828.09
2018-06-10T00:18:44.504Z,98833.30
2018-06-10T00:19:15.695Z,98827.00
2018-06-10T00:19:46.872Z,98836.77
2018-06-10T00:20:18.093Z,98835.34
2018-06-10T00:20:49.270Z,98841.02
2018-06-10T00:21:20.456Z,98840.88
2018-06-10T00:21:51.636Z,98836.05
2018-06-10T00:22:22.813Z,98841.02
2018-06-10T00:22:53.994Z,98838.46
2018-06-10T00:23:25.180Z,98840.52
2018-06-10T00:23:56.362Z,98843.90
2018-06-10T00:24:27.586Z,98838.70
2018-06-10T00:24:58.826Z,98841.84
2018-06-10T00:25:30.070Z,98845.46
2018-06-10T00:26:01.297Z,98841.35
2018-06-10T00:26:32.543Z,98843.04
2018-06-10T00:27:03.728Z,98844.23
2018-06-10T00:27:34.903Z,98846.62
2018-06-10T00:28:06.085Z,98846.89
2018-06-10T00:28:37.314Z,98843.02
2018-06-10T00:29:08.555Z,98849.17
2018-06-10T00:29:39.788Z,98845.66
2018-06-10T00:30:10.964Z,98851.33
2018-06-10T00:30:42.189Z,98848.22
2018-06-10T00:31:13.376Z,98847.38
2018-06-10T00:31:44.644Z,98850.13
2018-06-10T00:32:15.828Z,98849.77
2018-06-10T00:32:47.045Z,98840.48
2018-06-10T00:33:18.231Z,98849.44
2018-06-10T00:33:49.408Z,98846.16
2018-06-10T00:34:20.637Z,98841.95
2018-06-10T00:34:51.909Z,98846.29
2018-06-10T00:35:23.089Z,98846.62
2018-06-10T00:35:54.277Z,98847.12
2018-06-10T00:36:25.510Z,98840.48
2018-06-10T00:36:56.696Z,98848.44
2018-06-10T00:37:27.867Z,98844.59
2018-06-10T00:37:59.046Z,98847.38
2018-06-10T00:38:30.233Z,98842.81
2018-06-10T00:39:01.416Z,98849.44
2018-06-10T00:39:32.592Z,98846.78
2018-06-10T00:40:03.807Z,98843.04
2018-06-10T00:40:35.029Z,98845.46
2018-06-10T00:41:06.212Z,98845.33
2018-06-10T00:41:37.444Z,98840.02
2018-06-10T00:42:08.633Z,98845.79
2018-06-10T00:42:39.855Z,98843.88
2018-06-10T00:43:11.040Z,98840.63
2018-06-10T00:43:42.271Z,98840.49
2018-06-10T00:44:13.509Z,98839.77
2018-06-10T00:44:44.746Z,98837.24
2018-06-10T00:45:15.942Z,98840.48
2018-06-10T00:45:47.116Z,98841.84
2018-06-10T00:46:18.303Z,98837.27
2018-06-10T00:46:49.481Z,98847.75
2018-06-10T00:47:20.657Z,98841.58
2018-06-10T00:47:51.833Z,98839.06
2018-06-10T00:48:23.004Z,98841.02
2018-06-10T00:48:54.231Z,98844.50
2018-06-10T00:49:25.405Z,98840.39
2018-06-10T00:49:56.582Z,98842.91
2018-06-10T00:50:27.756Z,98839.92
2018-06-10T00:50:58.930Z,98846.88
2018-06-10T00:51:30.157Z,98843.41
2018-06-10T00:52:01.398Z,98848.94
2018-06-10T00:52:32.590Z,98839.42
2018-06-10T00:53:03.760Z,98842.81
2018-06-10T00:53:34.985Z,98842.91
2018-06-10T00:54:06.208Z,98840.63
2018-06-10T00:54:37.445Z,98840.86
2018-06-10T00:55:08.680Z,98848.45
2018-06-10T00:55:39.913Z,98838.41
2018-06-10T00:56:11.149Z,98838.67
2018-06-10T00:56:42.341Z,98834.09
2018-06-10T00:57:13.534Z,98838.08
2018-06-10T00:57:44.766Z,98838.80
2018-06-10T00:58:15.948Z,98834.46
2018-06-10T00:58:47.178Z,98843.98
2018-06-10T00:59:18.424Z,98843.74
2018-06-10T00:59:49.590Z,98833.86
2018-06-10T01:00:20.801Z,98833.37
2018-06-10T01:00:52.029Z,98836.16
2018-06-10T01:01:23.221Z,98828.42
2018-06-10T01:01:54.394Z,98834.59
2018-06-10T01:02:25.568Z,98833.73
2018-06-10T01:02:56.744Z,98837.34
2018-06-10T01:03:27.985Z,98829.05
2018-06-10T01:03:59.175Z,98836.65
2018-06-10T01:04:30.365Z,98827.10
2018-06-10T01:05:01.578Z,98829.52
2018-06-10T01:05:32.795Z,98836.61
2018-06-10T01:06:03.984Z,98828.06
2018-06-10T01:06:35.217Z,98833.70
2018-06-10T01:07:06.404Z,98827.30
2018-06-10T01:07:37.642Z,98832.14
2018-06-10T01:08:08.969Z,98822.86
2018-06-10T01:08:40.214Z,98829.85
2018-06-10T01:09:11.464Z,98825.61
2018-06-10T01:09:42.709Z,98822.00
2018-06-10T01:10:13.901Z,98819.34
2018-06-10T01:10:45.204Z,98822.86
2018-06-10T01:11:16.450Z,98822.86
2018-06-10T01:11:47.630Z,98819.70
2018-06-10T01:12:18.805Z,98825.02
2018-06-10T01:12:49.980Z,98820.07
2018-06-10T01:13:21.155Z,98820.57
2018-06-10T01:13:52.364Z,98819.24
2018-06-10T01:14:23.544Z,98818.52
2018-06-10T01:14:54.735Z,98818.74
2018-06-10T01:15:25.908Z,98819.58
2018-06-10T01:15:57.133Z,98815.59
2018-06-10T01:16:28.321Z,98819.24
2018-06-10T01:16:59.550Z,98814.27
2018-06-10T01:17:30.772Z,98811.62
2018-06-10T01:18:01.951Z,98817.42
2018-06-10T01:18:33.195Z,98817.42
2018-06-10T01:19:04.444Z,98817.28
2018-06-10T01:19:35.673Z,98817.52
2018-06-10T01:20:06.864Z,98819.57
2018-06-10T01:20:38.044Z,98816.78
2018-06-10T01:21:09.220Z,98811.88
2018-06-10T01:21:40.451Z,98817.66
2018-06-10T01:22:11.680Z,98822.95
2018-06-10T01:22:42.875Z,98821.99
2018-06-10T01:23:14.058Z,98815.36
2018-06-10T01:23:45.240Z,98813.77
2018-06-10T01:24:16.477Z,98813.17
2018-06-10T01:24:48.506Z,98816.78
2018-06-10T01:25:19.691Z,98817.15
2018-06-10T01:25:50.883Z,98818.11
2018-06-10T01:26:22.065Z,98809.92
2018-06-10T01:26:53.300Z,98814.27
2018-06-10T01:27:24.538Z,98810.78
2018-06-10T01:27:55.782Z,98809.23
2018-06-10T01:28:26.961Z,98814.63
2018-06-10T01:28:58.136Z,98805.25
2018-06-10T01:29:29.369Z,98810.05
2018-06-10T01:30:00.553Z,98807.41
2018-06-10T01:30:31.737Z,98805.25
2018-06-10T01:31:02.920Z,98810.05
2018-06-10T01:31:34.140Z,98810.42
2018-06-10T01:32:05.353Z,98804.75
2018-06-10T01:32:36.557Z,98813.07
2018-06-10T01:33:07.793Z,98810.05
2018-06-10T01:33:38.978Z,98805.25
2018-06-10T01:34:10.149Z,98809.09
2018-06-10T01:34:41.700Z,98807.27
2018-06-10T01:35:12.883Z,98806.80
2018-06-10T01:35:44.071Z,98809.55
2018-06-10T01:36:15.268Z,98812.56
2018-06-10T01:36:46.472Z,98807.86
2018-06-10T01:37:17.644Z,98805.44
2018-06-10T01:37:48.827Z,98803.65
2018-06-10T01:38:20.057Z,98810.97
2018-06-10T01:38:51.248Z,98807.72
2018-06-10T01:39:22.429Z,98809.52
2018-06-10T01:39:53.602Z,98805.20
2018-06-10T01:40:24.821Z,98803.74
2018-06-10T01:40:56.037Z,98803.38
2018-06-10T01:41:27.212Z,98808.45
2018-06-10T01:41:58.434Z,98805.44
2018-06-10T01:42:29.604Z,98809.05
2018-06-10T01:43:00.788Z,98812.44
2018-06-10T01:43:31.972Z,98806.16
2018-06-10T01:44:03.161Z,98808.59
2018-06-10T01:44:34.336Z,98807.14
2018-06-10T01:45:05.521Z,98807.14
2018-06-10T01:45:36.693Z,98808.95
2018-06-10T01:46:07.923Z,98804.98
2018-06-10T01:46:39.157Z,98806.31
2018-06-10T01:47:10.433Z,98804.52
2018-06-10T01:47:41.612Z,98812.61
2018-06-10T01:48:12.785Z,98804.39
2018-06-10T01:48:43.959Z,98809.09
2018-06-10T01:49:15.131Z,98810.05
2018-06-10T01:49:46.306Z,98809.69
2018-06-10T01:50:17.487Z,98809.23
2018-06-10T01:50:48.656Z,98802.33
2018-06-10T01:51:19.839Z,98807.41
2018-06-10T01:51:51.057Z,98806.07
2018-06-10T01:52:22.244Z,98813.03
2018-06-10T01:52:53.421Z,98812.44
2018-06-10T01:53:24.657Z,98810.88
2018-06-10T01:53:55.895Z,98811.24
2018-06-10T01:54:27.133Z,98812.30
2018-06-10T01:54:58.362Z,98815.19
2018-06-10T01:55:29.583Z,98815.17
2018-06-10T01:56:00.773Z,98811.28
2018-06-10T01:56:31.959Z,98813.80
2018-06-10T01:57:03.133Z,98811.87
2018-06-10T01:57:34.393Z,98815.72
2018-06-10T01:58:05.620Z,98809.36
2018-06-10T01:58:36.857Z,98813.70
2018-06-10T01:59:08.133Z,98817.19
2018-06-10T01:59:39.319Z,98814.30
2018-06-10T02:00:10.489Z,98809.23
2018-06-10T02:00:41.677Z,98809.95
2018-06-10T02:01:12.910Z,98808.39
2018-06-10T02:01:44.100Z,98812.02
2018-06-10T02:02:15.272Z,98813.34
2018-06-10T02:02:46.440Z,98813.70
2018-06-10T02:03:17.669Z,98805.74
2018-06-10T02:03:48.908Z,98814.40
2018-06-10T02:04:20.186Z,98815.72
2018-06-10T02:04:51.376Z,98812.10
2018-06-10T02:05:22.565Z,98807.66
2018-06-10T02:05:53.745Z,98806.80
2018-06-10T02:06:24.965Z,98809.81
2018-06-10T02:06:56.200Z,98808.73
2018-06-10T02:07:27.391Z,98812.10
2018-06-10T02:07:58.566Z,98816.45
2018-06-10T02:08:29.751Z,98813.93
2018-06-10T02:09:01.021Z,98815.12
2018-06-10T02:09:32.248Z,98811.50
2018-06-10T02:10:03.422Z,98810.80
2018-06-10T02:10:34.645Z,98812.35
2018-06-10T02:11:05.876Z,98812.20
2018-06-10T02:11:37.109Z,98809.34
2018-06-10T02:12:08.293Z,98812.56
2018-06-10T02:12:39.472Z,98809.20
2018-06-10T02:13:10.693Z,98815.84
2018-06-10T02:13:41.876Z,98808.58
2018-06-10T02:14:13.046Z,98818.14
2018-06-10T02:14:44.264Z,98810.78
2018-06-10T02:15:15.497Z,98809.45
2018-06-10T02:15:46.737Z,98806.94
2018-06-10T02:16:17.930Z,98813.80
2018-06-10T02:16:49.103Z,98815.12
2018-06-10T02:17:20.280Z,98814.77
2018-06-10T02:17:51.512Z,98809.45
2018-06-10T02:18:22.703Z,98812.47
2018-06-10T02:18:53.880Z,98811.14
2018-06-10T02:19:25.156Z,98815.95
2018-06-10T02:19:56.344Z,98813.52
2018-06-10T02:20:27.524Z,98809.80
2018-06-10T02:20:58.721Z,98810.88
2018-06-10T02:21:29.911Z,98817.87
2018-06-10T02:22:01.107Z,98815.70
2018-06-10T02:22:32.289Z,98814.73
2018-06-10T02:23:03.469Z,98817.02
2018-06-10T02:23:34.655Z,98858.16
2018-06-10T02:24:05.897Z,98812.43
2018-06-10T02:24:37.128Z,98817.23
2018-06-10T02:25:08.308Z,98815.55
2018-06-10T02:25:39.532Z,98817.73
2018-06-10T02:26:10.720Z,98817.97
2018-06-10T02:26:41.893Z,98820.48
2018-06-10T02:27:13.056Z,98817.47
2018-06-10T02:27:44.231Z,98810.09
2018-06-10T02:28:15.444Z,98811.78
2018-06-10T02:28:46.682Z,98815.12
2018-06-10T02:29:17.860Z,98805.73
2018-06-10T02:29:49.110Z,98808.84
2018-06-10T02:30:20.298Z,98813.10
2018-06-10T02:30:51.529Z,98816.36
2018-06-10T02:31:22.807Z,98811.05
2018-06-10T02:31:54.003Z,98813.98
2018-06-10T02:32:25.193Z,98811.33
2018-06-10T02:32:56.371Z,98810.00
2018-06-10T02:33:27.593Z,98819.16
2018-06-10T02:33:58.773Z,98814.58
2018-06-10T02:34:30.035Z,98815.19
2018-06-10T02:35:01.215Z,98810.38
2018-06-10T02:35:32.380Z,98816.52
2018-06-10T02:36:03.601Z,98819.44
2018-06-10T02:36:34.779Z,98818.25
2018-06-10T02:37:05.953Z,98814.73
2018-06-10T02:37:37.144Z,98820.13
2018-06-10T02:38:08.320Z,98820.99
2018-06-10T02:38:39.495Z,98817.73
2018-06-10T02:39:10.677Z,98818.93
2018-06-10T02:39:41.947Z,98816.73
2018-06-10T02:40:13.141Z,98822.17
2018-06-10T02:40:44.317Z,98822.39
2018-06-10T02:41:15.503Z,98824.41
2018-06-10T02:41:46.700Z,98821.16
2018-06-10T02:42:17.881Z,98818.59
2018-06-10T02:42:49.186Z,98818.13
2018-06-10T02:43:20.372Z,98820.14
2018-06-10T02:43:51.597Z,98820.86
2018-06-10T02:44:22.784Z,98817.38
2018-06-10T02:44:53.988Z,98822.33
2018-06-10T02:45:25.217Z,98821.97
2018-06-10T02:45:56.400Z,98823.30
2018-06-10T02:46:27.593Z,98825.00
2018-06-10T02:46:58.817Z,98823.07
2018-06-10T02:47:30.052Z,98828.47
2018-06-10T02:48:01.236Z,98825.80
2018-06-10T02:48:32.461Z,98827.20
2018-06-10T02:49:03.737Z,98826.60
2018-06-10T02:49:34.952Z,98825.14
2018-06-10T02:50:06.176Z,98821.02
2018-06-10T02:50:37.424Z,98818.28
2018-06-10T02:51:08.604Z,98818.77
2018-06-10T02:51:39.846Z,98818.19
2018-06-10T02:52:11.031Z,98817.91
2018-06-10T02:52:42.265Z,98819.00
2018-06-10T02:53:13.498Z,98820.05
2018-06-10T02:53:44.692Z,98814.13
2018-06-10T02:54:15.908Z,98815.32
2018-06-10T02:54:47.081Z,98813.61
2018-06-10T02:55:18.303Z,98820.94
2018-06-10T02:55:49.565Z,98822.98
2018-06-10T02:56:20.806Z,98825.28
2018-06-10T02:56:51.994Z,98824.31
2018-06-10T02:57:23.171Z,98815.98
2018-06-10T02:57:54.340Z,98824.53
2018-06-10T02:58:25.512Z,98823.92
2018-06-10T02:58:56.733Z,98820.05
2018-06-10T02:59:27.912Z,98821.88
2018-06-10T02:59:59.086Z,98824.53
2018-06-10T03:00:30.315Z,98825.36
2018-06-10T03:02:35.879Z,98839.36
2018-06-10T03:03:07.103Z,98834.16
2018-06-10T03:03:38.296Z,98837.90
2018-06-10T03:04:09.517Z,98840.05
2018-06-10T03:04:40.749Z,98837.75
2018-06-10T03:05:11.977Z,98837.16
2018-06-10T03:05:43.161Z,98840.17
2018-06-10T03:06:14.570Z,98836.77
2018-06-10T03:06:45.762Z,98835.91
2018-06-10T03:07:16.944Z,98829.88
2018-06-10T03:07:48.136Z,98840.69
2018-06-10T03:08:19.330Z,98839.24
2018-06-10T03:08:50.509Z,98834.70
2018-06-10T03:09:21.738Z,98836.50
2018-06-10T03:09:52.955Z,98838.19
2018-06-10T03:10:24.133Z,98838.42
2018-06-10T03:10:55.333Z,98842.13
2018-06-10T03:11:26.539Z,98844.31
2018-06-10T03:11:57.763Z,98839.97
2018-06-10T03:12:28.956Z,98846.00
2018-06-10T03:13:00.129Z,98840.69
2018-06-10T03:13:31.301Z,98839.09
2018-06-10T03:14:02.477Z,98844.03
2018-06-10T03:14:33.707Z,98844.03
2018-06-10T03:15:04.942Z,98844.53
2018-06-10T03:15:36.161Z,98843.81
2018-06-10T03:16:07.348Z,98843.13
2018-06-10T03:16:38.568Z,98840.02
2018-06-10T03:17:09.754Z,98846.16
2018-06-10T03:17:40.930Z,98848.81
2018-06-10T03:18:12.096Z,98845.66
2018-06-10T03:18:43.273Z,98845.78
2018-06-10T03:19:14.447Z,98846.00
2018-06-10T03:19:45.618Z,98846.00
2018-06-10T03:20:16.800Z,98847.05
2018-06-10T03:20:47.987Z,98846.45
2018-06-10T03:21:19.156Z,98851.27
2018-06-10T03:21:50.376Z,98849.11
2018-06-10T03:22:21.600Z,98848.38
2018-06-10T03:22:52.835Z,98852.00
2018-06-10T03:23:24.069Z,98853.22
2018-06-10T03:23:55.240Z,98852.45
2018-06-10T03:24:26.461Z,98847.64
2018-06-10T03:24:57.648Z,98849.33
2018-06-10T03:25:28.826Z,98852.81
2018-06-10T03:26:00.047Z,98847.86
2018-06-10T03:26:31.289Z,98851.23
2018-06-10T03:27:02.482Z,98848.22
2018-06-10T03:27:33.709Z,98855.69
2018-06-10T03:28:04.889Z,98849.19
2018-06-10T03:28:36.113Z,98855.22
2018-06-10T03:29:07.298Z,98849.55
2018-06-10T03:29:38.472Z,98853.03
2018-06-10T03:30:09.650Z,98857.60
2018-06-10T03:30:40.841Z,98857.50
2018-06-10T03:31:12.070Z,98851.19
2018-06-10T03:31:43.348Z,98853.52
2018-06-10T03:32:14.525Z,98851.38
2018-06-10T03:32:45.697Z,98855.38
2018-06-10T03:33:16.869Z,98858.77
2018-06-10T03:33:48.097Z,98852.34
2018-06-10T03:34:19.302Z,98857.52
2018-06-10T03:34:50.536Z,98861.86
2018-06-10T03:35:21.771Z,98860.04
2018-06-10T03:35:53.005Z,98855.22
2018-06-10T03:36:24.223Z,98853.76
2018-06-10T03:36:55.441Z,98858.69
2018-06-10T03:37:26.647Z,98851.08
2018-06-10T03:37:57.828Z,98859.88
2018-06-10T03:38:29.016Z,98858.55
2018-06-10T03:39:00.197Z,98849.83
2018-06-10T03:39:31.368Z,98849.69
2018-06-10T03:40:02.544Z,98853.80
2018-06-10T03:40:33.772Z,98861.52
2018-06-10T03:41:04.948Z,98858.36
2018-06-10T03:41:36.132Z,98857.39
2018-06-10T03:42:07.352Z,98856.42
2018-06-10T03:42:38.567Z,98853.05
2018-06-10T03:43:09.740Z,98857.03
2018-06-10T03:43:40.913Z,98851.50
2018-06-10T03:44:12.084Z,98848.59
2018-06-10T03:44:43.307Z,98846.89
2018-06-10T03:45:14.483Z,98850.19
2018-06-10T03:45:45.665Z,98851.16
2018-06-10T03:46:16.836Z,98853.09
2018-06-10T03:46:48.009Z,98854.34
2018-06-10T03:47:19.198Z,98855.17
2018-06-10T03:47:50.462Z,98853.59
2018-06-10T03:48:21.647Z,98850.94
2018-06-10T03:48:52.817Z,98846.45
2018-06-10T03:49:24.045Z,98850.94
2018-06-10T03:49:55.279Z,98854.78
2018-06-10T03:50:26.501Z,98853.31
2018-06-10T03:50:57.745Z,98855.51
2018-06-10T03:51:28.991Z,98848.22
2018-06-10T03:52:00.184Z,98856.09
2018-06-10T03:52:31.353Z,98854.16
2018-06-10T03:53:02.569Z,98855.70
2018-06-10T03:53:33.740Z,98850.61
2018-06-10T03:54:04.913Z,98853.98
2018-06-10T03:54:36.085Z,98854.20
2018-06-10T03:55:07.259Z,98852.41
2018-06-10T03:55:38.482Z,98850.83
2018-06-10T03:56:09.713Z,98851.83
2018-06-10T03:56:40.893Z,98848.81
2018-06-10T03:57:12.081Z,98851.11
2018-06-10T03:57:43.254Z,98856.56
2018-06-10T03:58:14.466Z,98853.33
2018-06-10T03:58:45.688Z,98851.88
2018-06-10T03:59:17.288Z,98855.34
2018-06-10T03:59:48.467Z,98855.70
2018-06-10T04:00:19.636Z,98853.62
2018-06-10T04:00:50.816Z,98859.80
2018-06-10T04:01:21.987Z,98855.67
2018-06-10T04:01:53.156Z,98861.71
2018-06-10T04:02:24.330Z,98857.95
2018-06-10T04:02:55.503Z,98852.63
2018-06-10T04:03:26.725Z,98851.91
2018-06-10T04:03:57.888Z,98853.23
2018-06-10T04:04:29.059Z,98857.58
2018-06-10T04:05:00.228Z,98858.63
2018-06-10T04:05:31.404Z,98863.70
2018-06-10T04:06:02.575Z,98863.06
2018-06-10T04:06:33.784Z,98858.49
2018-06-10T04:07:04.949Z,98867.11
2018-06-10T04:07:36.178Z,98864.81
2018-06-10T04:08:07.411Z,98862.84
2018-06-10T04:08:38.645Z,98863.56
2018-06-10T04:09:09.820Z,98865.72
2018-06-10T04:09:40.989Z,98864.06
2018-06-10T04:10:12.247Z,98862.15
2018-06-10T04:10:43.436Z,98866.39
2018-06-10T04:11:14.652Z,98866.61
2018-06-10T04:11:45.893Z,98868.66
2018-06-10T04:12:17.084Z,98871.92
2018-06-10T04:12:48.256Z,98869.62
2018-06-10T04:13:19.528Z,98872.78
2018-06-10T04:13:50.716Z,98873.25
2018-06-10T04:14:21.893Z,98871.23
2018-06-10T04:14:53.063Z,98873.03
2018-06-10T04:15:24.285Z,98876.27
2018-06-10T04:15:55.465Z,98871.23
2018-06-10T04:16:26.693Z,98875.83
2018-06-10T04:16:57.868Z,98876.94
2018-06-10T04:17:29.049Z,98875.39
2018-06-10T04:18:00.222Z,98878.05
2018-06-10T04:18:31.439Z,98887.34
2018-06-10T04:19:02.608Z,98885.16
2018-06-10T04:19:33.772Z,98879.52
2018-06-10T04:20:04.972Z,98881.67
2018-06-10T04:20:36.191Z,98883.83
2018-06-10T04:21:07.371Z,98887.81
2018-06-10T04:21:38.599Z,98885.68
2018-06-10T04:22:09.832Z,98882.41
2018-06-10T04:22:41.052Z,98884.69
2018-06-10T04:23:12.262Z,98884.05
2018-06-10T04:23:43.478Z,98882.25
2018-06-10T04:24:14.663Z,98881.50
2018-06-10T04:24:45.835Z,98880.86
2018-06-10T04:25:17.022Z,98882.19
2018-06-10T04:25:48.192Z,98886.32
2018-06-10T04:26:19.363Z,98880.86
2018-06-10T04:26:50.542Z,98887.51
2018-06-10T04:27:21.791Z,98881.72
2018-06-10T04:27:53.030Z,98883.13
2018-06-10T04:28:24.215Z,98883.72
2018-06-10T04:28:55.395Z,98886.73
2018-06-10T04:29:26.618Z,98886.09
2018-06-10T04:29:57.844Z,98889.83
2018-06-10T04:30:29.018Z,98888.50
2018-06-10T04:31:00.309Z,98894.65
2018-06-10T04:31:31.541Z,98894.87
2018-06-10T04:32:02.722Z,98898.61
2018-06-10T04:32:33.928Z,98894.98
2018-06-10T04:33:05.158Z,98898.10
2018-06-10T04:33:36.335Z,98900.66
2018-06-10T04:34:07.500Z,98897.86
2018-06-10T04:34:38.672Z,98897.94
2018-06-10T04:35:09.852Z,98895.50
2018-06-10T04:35:41.075Z,98897.41
2018-06-10T04:36:12.300Z,98899.23
2018-06-10T04:36:43.524Z,98896.97
2018-06-10T04:37:14.692Z,98901.31
2018-06-10T04:37:45.869Z,98903.97
2018-06-10T04:38:17.045Z,98903.83
2018-06-10T04:38:48.274Z,98899.48
2018-06-10T04:39:19.457Z,98898.52
2018-06-10T04:39:50.673Z,98894.02
2018-06-10T04:40:21.845Z,98895.10
2018-06-10T04:40:53.015Z,98896.90
2018-06-10T04:41:24.230Z,98902.72
2018-06-10T04:41:55.396Z,98896.68
2018-06-10T04:42:26.568Z,98896.90
2018-06-10T04:42:57.790Z,98898.23
2018-06-10T04:43:28.984Z,98900.14
2018-06-10T04:44:00.145Z,98898.70
2018-06-10T04:44:31.367Z,98895.54
2018-06-10T04:45:02.627Z,98903.13
2018-06-10T04:45:33.806Z,98899.03
2018-06-10T04:46:05.030Z,98900.82
2018-06-10T04:46:36.216Z,98899.31
2018-06-10T04:47:07.410Z,98902.36
2018-06-10T04:47:38.591Z,98899.67
2018-06-10T04:48:09.808Z,98903.30
2018-06-10T04:48:40.984Z,98902.64
2018-06-10T04:49:12.245Z,98901.61
2018-06-10T04:49:43.477Z,98904.63
2018-06-10T04:50:14.757Z,98909.05
2018-06-10T04:50:45.931Z,98910.13
2018-06-10T04:51:17.108Z,98909.84
2018-06-10T04:51:48.331Z,98909.23
2018-06-10T04:52:19.565Z,98910.78
2018-06-10T04:52:50.798Z,98914.48
2018-06-10T04:53:21.981Z,98918.37
2018-06-10T04:53:53.156Z,98914.48
2018-06-10T04:54:24.388Z,98915.17
2018-06-10T04:54:55.576Z,98917.58
2018-06-10T04:55:26.867Z,98916.97
2018-06-10T04:55:58.117Z,98920.31
2018-06-10T04:56:29.304Z,98923.08
2018-06-10T04:57:00.473Z,98917.75
2018-06-10T04:57:31.710Z,98926.34
2018-06-10T04:58:02.941Z,98924.45
2018-06-10T04:58:34.120Z,98921.06
2018-06-10T04:59:05.296Z,98926.17
2018-06-10T04:59:36.513Z,98926.31
2018-06-10T05:00:07.739Z,98928.22
2018-06-10T05:00:38.963Z,98920.09
2018-06-10T05:01:10.143Z,98924.30
2018-06-10T05:01:41.360Z,98921.92
2018-06-10T05:02:12.539Z,98924.52
2018-06-10T05:02:43.713Z,98913.83
2018-06-10T05:03:14.887Z,98920.16
2018-06-10T05:03:46.060Z,98921.37
2018-06-10T05:04:17.285Z,98922.72
2018-06-10T05:04:48.515Z,98919.36
2018-06-10T05:05:19.733Z,98923.23
2018-06-10T05:05:50.961Z,98919.06
2018-06-10T05:06:22.201Z,98923.07
2018-06-10T05:06:53.385Z,98923.19
2018-06-10T05:07:24.612Z,98924.31
2018-06-10T05:07:55.794Z,98924.88
2018-06-10T05:08:26.969Z,98922.48
2018-06-10T05:08:58.145Z,98927.90
2018-06-10T05:09:29.319Z,98925.29
2018-06-10T05:10:00.493Z,98928.46
2018-06-10T05:10:31.770Z,98932.10
2018-06-10T05:11:02.958Z,98930.62
2018-06-10T05:11:34.129Z,98931.45
2018-06-10T05:12:05.296Z,98928.66
2018-06-10T05:12:36.479Z,98934.05
2018-06-10T05:13:07.652Z,98929.64
2018-06-10T05:13:38.820Z,98928.47
2018-06-10T05:14:09.995Z,98924.73
2018-06-10T05:14:41.164Z,98928.88
2018-06-10T05:15:12.390Z,98928.88
2018-06-10T05:15:43.616Z,98931.19
2018-06-10T05:16:14.846Z,98927.55
2018-06-10T05:16:46.089Z,98931.84
2018-06-10T05:17:17.337Z,98931.48
2018-06-10T05:17:48.526Z,98938.20
2018-06-10T05:18:19.700Z,98930.36
2018-06-10T05:18:50.884Z,98935.13
2018-06-10T05:19:22.098Z,98937.94
2018-06-10T05:19:53.412Z,98937.64
2018-06-10T05:20:24.538Z,98936.92
2018-06-10T05:20:55.765Z,98933.37
2018-06-10T05:21:26.956Z,98934.41
2018-06-10T05:21:58.176Z,98934.34
2018-06-10T05:22:29.403Z,98935.47
2018-06-10T05:23:00.642Z,98933.21
2018-06-10T05:23:31.874Z,98937.50
2018-06-10T05:24:03.050Z,98933.11
2018-06-10T05:24:34.257Z,98936.39
2018-06-10T05:25:05.494Z,98940.06
2018-06-10T05:25:36.728Z,98939.00
2018-06-10T05:26:07.908Z,98940.69
2018-06-10T05:26:39.116Z,98938.93
2018-06-10T05:27:10.289Z,98937.66
2018-06-10T05:27:41.464Z,98939.70
2018-06-10T05:28:12.640Z,98941.45
2018-06-10T05:28:43.836Z,98934.94
2018-06-10T05:29:15.008Z,98938.57
2018-06-10T05:29:46.178Z,98941.09
2018-06-10T05:30:17.352Z,98939.28
2018-06-10T05:30:48.528Z,98939.28
2018-06-10T05:31:19.742Z,98938.93
2018-06-10T05:31:50.922Z,98940.94
2018-06-10T05:32:22.095Z,98943.14
2018-06-10T05:32:53.271Z,98939.28
2018-06-10T05:33:24.459Z,98939.55
2018-06-10T05:33:55.641Z,98937.37
2018-06-10T05:34:26.860Z,98941.55
2018-06-10T05:34:58.036Z,98941.91
2018-06-10T05:35:29.229Z,98942.33
2018-06-10T05:36:00.414Z,98937.17
2018-06-10T05:36:31.605Z,98939.00
2018-06-10T05:37:02.785Z,98941.25
2018-06-10T05:37:33.960Z,98939.61
2018-06-10T05:38:05.132Z,98940.25
2018-06-10T05:38:36.305Z,98940.09
2018-06-10T05:39:07.593Z,98941.53
2018-06-10T05:39:38.804Z,98942.32
2018-06-10T05:40:09.989Z,98942.52
2018-06-10T05:40:41.230Z,98943.50
2018-06-10T05:41:12.414Z,98946.88
2018-06-10T05:41:43.582Z,98945.34
2018-06-10T05:42:14.773Z,98952.48
2018-06-10T05:42:45.959Z,98947.50
2018-06-10T05:43:17.127Z,98951.50
2018-06-10T05:43:48.361Z,98951.50
2018-06-10T05:44:19.581Z,98950.83
2018-06-10T05:44:50.760Z,98949.49
2018-06-10T05:45:21.929Z,98952.42
2018-06-10T05:45:53.153Z,98953.77
2018-06-10T05:46:24.342Z,98954.73
2018-06-10T05:46:55.562Z,98949.05
2018-06-10T05:47:26.795Z,98951.58
2018-06-10T05:47:58.057Z,98947.59
2018-06-10T05:48:29.249Z,98950.97
2018-06-10T05:49:00.473Z,98953.48
2018-06-10T05:49:31.708Z,98948.66
2018-06-10T05:50:02.893Z,98955.52
2018-06-10T05:50:34.118Z,98953.61
2018-06-10T05:51:05.305Z,98956.50
2018-06-10T05:51:36.521Z,98957.48
2018-06-10T05:52:07.753Z,98958.16
2018-06-10T05:52:38.997Z,98956.00
2018-06-10T05:53:10.236Z,98960.34
2018-06-10T05:53:41.473Z,98958.66
2018-06-10T05:54:12.707Z,98957.37
2018-06-10T05:54:43.936Z,98960.66
2018-06-10T05:55:15.129Z,98954.83
2018-06-10T05:55:46.296Z,98964.03
2018-06-10T05:56:17.525Z,98959.03
2018-06-10T05:56:48.736Z,98957.37
2018-06-10T05:57:19.909Z,98959.25
2018-06-10T05:57:51.079Z,98953.19
2018-06-10T05:58:22.307Z,98959.30
2018-06-10T05:58:53.486Z,98957.05
2018-06-10T05:59:24.716Z,98961.14
2018-06-10T05:59:55.900Z,98962.17
2018-06-10T06:00:27.068Z,98961.27
2018-06-10T06:00:58.299Z,98960.02
2018-06-10T06:01:29.517Z,98960.80
2018-06-10T06:02:00.689Z,98960.91
2018-06-10T06:02:31.917Z,98960.20
2018-06-10T06:03:03.145Z,98964.20
2018-06-10T06:03:34.325Z,98962.30
2018-06-10T06:04:05.500Z,98965.98
2018-06-10T06:04:36.721Z,98963.58
2018-06-10T06:05:07.959Z,98962.51
2018-06-10T06:05:39.157Z,98959.38
2018-06-10T06:06:10.412Z,98964.91
2018-06-10T06:06:41.596Z,98967.78
2018-06-10T06:07:12.768Z,98969.62
2018-06-10T06:07:43.980Z,98965.27
2018-06-10T06:08:15.199Z,98966.66